sensor_id;sensor_type;location;lat;lon;timestamp;temperature;humidity
17296;DHT22;8766;51.480;6.872;2022-10-14T00:01:33;14.90;66.10
17296;DHT22;8766;51.480;6.872;2022-10-14T00:04:00;14.90;66.10
17296;DHT22;8766;51.480;6.872;2022-10-14T00:06:28;14.90;66.70
17296;DHT22;8766;51.480;6.872;2022-10-14T00:08:59;14.90;66.10
17296;DHT22;8766;51.480;6.872;2022-10-14T00:11:28;14.90;66.10
17296;DHT22;8766;51.480;6.872;2022-10-14T00:13:59;14.90;66.10
17296;DHT22;8766;51.480;6.872;2022-10-14T00:16:29;14.90;66.10
17296;DHT22;8766;51.480;6.872;2022-10-14T00:18:56;14.90;66.10
17296;DHT22;8766;51.480;6.872;2022-10-14T00:21:23;14.90;66.10
17296;DHT22;8766;51.480;6.872;2022-10-14T00:23:50;14.90;66.10
17296;DHT22;8766;51.480;6.872;2022-10-14T00:26:19;14.90;66.10
17296;DHT22;8766;51.480;6.872;2022-10-14T00:28:47;14.90;66.20
17296;DHT22;8766;51.480;6.872;2022-10-14T00:31:16;14.90;66.10
17296;DHT22;8766;51.480;6.872;2022-10-14T00:33:43;14.90;66.20
17296;DHT22;8766;51.480;6.872;2022-10-14T00:36:12;14.90;66.20
17296;DHT22;8766;51.480;6.872;2022-10-14T00:38:39;14.90;66.20
17296;DHT22;8766;51.480;6.872;2022-10-14T00:41:06;14.90;66.20
17296;DHT22;8766;51.480;6.872;2022-10-14T00:43:54;14.90;66.20
17296;DHT22;8766;51.480;6.872;2022-10-14T00:46:24;14.90;66.20
17296;DHT22;8766;51.480;6.872;2022-10-14T00:48:51;14.90;66.20
17296;DHT22;8766;51.480;6.872;2022-10-14T00:51:19;14.90;66.20
17296;DHT22;8766;51.480;6.872;2022-10-14T00:53:46;14.90;66.20
17296;DHT22;8766;51.480;6.872;2022-10-14T00:56:16;14.90;66.20
17296;DHT22;8766;51.480;6.872;2022-10-14T00:58:43;14.90;66.20
17296;DHT22;8766;51.480;6.872;2022-10-14T01:01:10;14.90;66.20
17296;DHT22;8766;51.480;6.872;2022-10-14T01:03:40;14.90;66.20
17296;DHT22;8766;51.480;6.872;2022-10-14T01:06:15;14.90;66.20
17296;DHT22;8766;51.480;6.872;2022-10-14T01:08:48;14.90;66.30
17296;DHT22;8766;51.480;6.872;2022-10-14T01:11:24;14.90;66.20
17296;DHT22;8766;51.480;6.872;2022-10-14T01:14:02;14.90;66.30
17296;DHT22;8766;51.480;6.872;2022-10-14T01:16:36;14.90;66.30
17296;DHT22;8766;51.480;6.872;2022-10-14T01:19:30;14.90;66.30
17296;DHT22;8766;51.480;6.872;2022-10-14T01:22:03;14.90;66.20
17296;DHT22;8766;51.480;6.872;2022-10-14T01:24:41;14.90;66.20
17296;DHT22;8766;51.480;6.872;2022-10-14T01:27:15;14.90;66.30
17296;DHT22;8766;51.480;6.872;2022-10-14T01:30:09;14.90;66.30
17296;DHT22;8766;51.480;6.872;2022-10-14T01:32:47;14.80;66.30
17296;DHT22;8766;51.480;6.872;2022-10-14T01:35:22;14.80;66.20
17296;DHT22;8766;51.480;6.872;2022-10-14T01:37:54;14.80;66.20
17296;DHT22;8766;51.480;6.872;2022-10-14T01:40:25;14.90;66.30
17296;DHT22;8766;51.480;6.872;2022-10-14T01:42:53;14.80;66.20
17296;DHT22;8766;51.480;6.872;2022-10-14T01:45:22;14.80;66.20
17296;DHT22;8766;51.480;6.872;2022-10-14T01:47:52;14.80;66.30
17296;DHT22;8766;51.480;6.872;2022-10-14T01:50:22;14.80;66.30
17296;DHT22;8766;51.480;6.872;2022-10-14T01:52:52;14.80;66.30
17296;DHT22;8766;51.480;6.872;2022-10-14T01:55:23;14.80;66.30
17296;DHT22;8766;51.480;6.872;2022-10-14T01:57:53;14.90;66.40
17296;DHT22;8766;51.480;6.872;2022-10-14T02:00:23;14.90;66.30
17296;DHT22;8766;51.480;6.872;2022-10-14T02:02:50;14.90;66.30
17296;DHT22;8766;51.480;6.872;2022-10-14T02:05:21;14.90;66.30
17296;DHT22;8766;51.480;6.872;2022-10-14T02:07:53;14.90;66.30
17296;DHT22;8766;51.480;6.872;2022-10-14T02:10:29;14.90;66.30
17296;DHT22;8766;51.480;6.872;2022-10-14T02:13:10;14.90;66.30
17296;DHT22;8766;51.480;6.872;2022-10-14T02:15:48;14.90;66.30
17296;DHT22;8766;51.480;6.872;2022-10-14T02:18:26;14.90;66.30
17296;DHT22;8766;51.480;6.872;2022-10-14T02:21:02;14.90;66.30
17296;DHT22;8766;51.480;6.872;2022-10-14T02:23:34;14.90;66.30
17296;DHT22;8766;51.480;6.872;2022-10-14T02:26:03;14.90;66.30
17296;DHT22;8766;51.480;6.872;2022-10-14T02:28:32;14.90;66.30
17296;DHT22;8766;51.480;6.872;2022-10-14T02:31:03;14.90;66.30
17296;DHT22;8766;51.480;6.872;2022-10-14T02:33:34;14.90;66.30
17296;DHT22;8766;51.480;6.872;2022-10-14T02:36:05;14.90;66.30
17296;DHT22;8766;51.480;6.872;2022-10-14T02:38:33;14.90;66.30
17296;DHT22;8766;51.480;6.872;2022-10-14T02:41:03;14.90;66.30
17296;DHT22;8766;51.480;6.872;2022-10-14T02:43:30;14.90;66.30
17296;DHT22;8766;51.480;6.872;2022-10-14T02:46:00;14.90;66.30
17296;DHT22;8766;51.480;6.872;2022-10-14T02:48:28;14.90;66.30
17296;DHT22;8766;51.480;6.872;2022-10-14T02:50:55;14.90;66.40
17296;DHT22;8766;51.480;6.872;2022-10-14T02:53:22;14.90;66.40
17296;DHT22;8766;51.480;6.872;2022-10-14T02:55:49;14.90;66.40
17296;DHT22;8766;51.480;6.872;2022-10-14T02:58:16;14.80;66.40
17296;DHT22;8766;51.480;6.872;2022-10-14T03:00:43;14.80;66.40
17296;DHT22;8766;51.480;6.872;2022-10-14T03:03:11;14.80;66.40
17296;DHT22;8766;51.480;6.872;2022-10-14T03:05:38;14.80;66.40
17296;DHT22;8766;51.480;6.872;2022-10-14T03:08:04;14.90;66.50
17296;DHT22;8766;51.480;6.872;2022-10-14T03:10:31;14.80;66.40
17296;DHT22;8766;51.480;6.872;2022-10-14T03:12:58;14.90;66.50
17296;DHT22;8766;51.480;6.872;2022-10-14T03:15:25;14.90;66.50
17296;DHT22;8766;51.480;6.872;2022-10-14T03:17:52;14.90;66.50
17296;DHT22;8766;51.480;6.872;2022-10-14T03:20:20;14.90;66.50
17296;DHT22;8766;51.480;6.872;2022-10-14T03:22:47;14.90;66.40
17296;DHT22;8766;51.480;6.872;2022-10-14T03:25:14;14.90;66.50
17296;DHT22;8766;51.480;6.872;2022-10-14T03:27:41;14.90;66.50
17296;DHT22;8766;51.480;6.872;2022-10-14T03:30:09;14.90;66.50
17296;DHT22;8766;51.480;6.872;2022-10-14T03:32:36;14.90;66.50
17296;DHT22;8766;51.480;6.872;2022-10-14T03:35:04;14.90;66.50
17296;DHT22;8766;51.480;6.872;2022-10-14T03:37:32;14.90;66.50
17296;DHT22;8766;51.480;6.872;2022-10-14T03:39:59;14.90;66.50
17296;DHT22;8766;51.480;6.872;2022-10-14T03:42:25;14.90;66.50
17296;DHT22;8766;51.480;6.872;2022-10-14T03:44:52;14.90;66.60
17296;DHT22;8766;51.480;6.872;2022-10-14T03:47:19;14.80;66.50
17296;DHT22;8766;51.480;6.872;2022-10-14T03:49:46;14.80;66.50
17296;DHT22;8766;51.480;6.872;2022-10-14T03:52:13;14.80;66.50
17296;DHT22;8766;51.480;6.872;2022-10-14T03:54:41;14.80;66.50
17296;DHT22;8766;51.480;6.872;2022-10-14T03:57:08;14.80;66.50
17296;DHT22;8766;51.480;6.872;2022-10-14T03:59:35;14.80;66.50
17296;DHT22;8766;51.480;6.872;2022-10-14T04:02:02;14.80;66.60
17296;DHT22;8766;51.480;6.872;2022-10-14T04:04:28;14.80;66.60
17296;DHT22;8766;51.480;6.872;2022-10-14T04:06:55;14.80;66.60
17296;DHT22;8766;51.480;6.872;2022-10-14T04:09:22;14.80;66.60
17296;DHT22;8766;51.480;6.872;2022-10-14T04:11:51;14.80;66.60
17296;DHT22;8766;51.480;6.872;2022-10-14T04:14:19;14.80;66.70
17296;DHT22;8766;51.480;6.872;2022-10-14T04:16:46;14.80;66.70
17296;DHT22;8766;51.480;6.872;2022-10-14T04:19:13;14.90;66.70
17296;DHT22;8766;51.480;6.872;2022-10-14T04:21:40;14.80;66.70
17296;DHT22;8766;51.480;6.872;2022-10-14T04:24:07;14.80;66.60
17296;DHT22;8766;51.480;6.872;2022-10-14T04:26:34;14.90;66.70
17296;DHT22;8766;51.480;6.872;2022-10-14T04:29:02;14.90;66.70
17296;DHT22;8766;51.480;6.872;2022-10-14T04:31:29;14.80;66.70
17296;DHT22;8766;51.480;6.872;2022-10-14T04:33:56;14.80;66.60
17296;DHT22;8766;51.480;6.872;2022-10-14T04:36:23;14.80;66.70
17296;DHT22;8766;51.480;6.872;2022-10-14T04:38:50;14.90;66.70
17296;DHT22;8766;51.480;6.872;2022-10-14T04:41:16;14.80;66.70
17296;DHT22;8766;51.480;6.872;2022-10-14T04:43:43;14.80;66.70
17296;DHT22;8766;51.480;6.872;2022-10-14T04:46:12;14.90;66.80
17296;DHT22;8766;51.480;6.872;2022-10-14T04:48:38;14.90;66.80
17296;DHT22;8766;51.480;6.872;2022-10-14T04:51:05;14.90;66.80
17296;DHT22;8766;51.480;6.872;2022-10-14T04:53:32;14.80;66.70
17296;DHT22;8766;51.480;6.872;2022-10-14T04:55:59;14.80;66.70
17296;DHT22;8766;51.480;6.872;2022-10-14T04:58:26;14.90;66.80
17296;DHT22;8766;51.480;6.872;2022-10-14T05:00:53;14.80;66.70
17296;DHT22;8766;51.480;6.872;2022-10-14T05:03:21;14.80;66.70
17296;DHT22;8766;51.480;6.872;2022-10-14T05:05:49;14.80;66.80
17296;DHT22;8766;51.480;6.872;2022-10-14T05:08:17;14.80;66.80
17296;DHT22;8766;51.480;6.872;2022-10-14T05:10:43;14.80;66.80
17296;DHT22;8766;51.480;6.872;2022-10-14T05:13:10;14.80;66.80
17296;DHT22;8766;51.480;6.872;2022-10-14T05:15:37;14.80;66.80
17296;DHT22;8766;51.480;6.872;2022-10-14T05:18:04;14.80;66.80
17296;DHT22;8766;51.480;6.872;2022-10-14T05:20:32;14.80;66.80
17296;DHT22;8766;51.480;6.872;2022-10-14T05:23:00;14.80;66.80
17296;DHT22;8766;51.480;6.872;2022-10-14T05:25:27;14.90;66.90
17296;DHT22;8766;51.480;6.872;2022-10-14T05:27:54;14.80;66.80
17296;DHT22;8766;51.480;6.872;2022-10-14T05:30:21;14.80;66.90
17296;DHT22;8766;51.480;6.872;2022-10-14T05:32:48;14.80;66.90
17296;DHT22;8766;51.480;6.872;2022-10-14T05:35:15;14.80;66.90
17296;DHT22;8766;51.480;6.872;2022-10-14T05:37:43;14.80;66.90
17296;DHT22;8766;51.480;6.872;2022-10-14T05:40:10;14.80;66.90
17296;DHT22;8766;51.480;6.872;2022-10-14T05:42:37;14.80;67.00
17296;DHT22;8766;51.480;6.872;2022-10-14T05:45:05;14.80;66.90
17296;DHT22;8766;51.480;6.872;2022-10-14T05:47:32;14.80;66.90
17296;DHT22;8766;51.480;6.872;2022-10-14T05:49:59;14.80;67.00
17296;DHT22;8766;51.480;6.872;2022-10-14T05:52:27;14.80;66.90
17296;DHT22;8766;51.480;6.872;2022-10-14T05:54:57;14.80;66.90
17296;DHT22;8766;51.480;6.872;2022-10-14T05:57:26;14.80;66.90
17296;DHT22;8766;51.480;6.872;2022-10-14T05:59:53;14.80;67.00
17296;DHT22;8766;51.480;6.872;2022-10-14T06:02:20;14.90;66.90
17296;DHT22;8766;51.480;6.872;2022-10-14T06:04:47;14.90;67.00
17296;DHT22;8766;51.480;6.872;2022-10-14T06:07:14;14.90;67.00
17296;DHT22;8766;51.480;6.872;2022-10-14T06:09:41;14.90;67.00
17296;DHT22;8766;51.480;6.872;2022-10-14T06:12:09;14.90;67.00
17296;DHT22;8766;51.480;6.872;2022-10-14T06:14:36;14.90;66.90
17296;DHT22;8766;51.480;6.872;2022-10-14T06:17:04;14.90;67.60
17296;DHT22;8766;51.480;6.872;2022-10-14T06:19:31;14.90;66.90
17296;DHT22;8766;51.480;6.872;2022-10-14T06:21:58;14.90;66.90
17296;DHT22;8766;51.480;6.872;2022-10-14T06:24:25;14.90;66.90
17296;DHT22;8766;51.480;6.872;2022-10-14T06:26:52;14.90;66.90
17296;DHT22;8766;51.480;6.872;2022-10-14T06:29:20;14.90;66.80
17296;DHT22;8766;51.480;6.872;2022-10-14T06:31:50;15.00;66.80
17296;DHT22;8766;51.480;6.872;2022-10-14T06:34:17;15.00;66.80
17296;DHT22;8766;51.480;6.872;2022-10-14T06:36:48;15.00;66.70
17296;DHT22;8766;51.480;6.872;2022-10-14T06:39:15;15.00;66.80
17296;DHT22;8766;51.480;6.872;2022-10-14T06:41:42;15.00;66.80
17296;DHT22;8766;51.480;6.872;2022-10-14T06:44:09;15.00;66.80
17296;DHT22;8766;51.480;6.872;2022-10-14T06:46:37;15.00;66.80
17296;DHT22;8766;51.480;6.872;2022-10-14T06:49:04;15.00;66.70
17296;DHT22;8766;51.480;6.872;2022-10-14T06:51:30;15.10;66.70
17296;DHT22;8766;51.480;6.872;2022-10-14T06:53:57;15.10;66.70
17296;DHT22;8766;51.480;6.872;2022-10-14T06:56:24;15.10;66.70
17296;DHT22;8766;51.480;6.872;2022-10-14T06:58:52;15.10;66.70
17296;DHT22;8766;51.480;6.872;2022-10-14T07:01:20;15.10;66.60
17296;DHT22;8766;51.480;6.872;2022-10-14T07:03:48;15.10;66.70
17296;DHT22;8766;51.480;6.872;2022-10-14T07:06:15;15.10;66.70
17296;DHT22;8766;51.480;6.872;2022-10-14T07:08:42;15.10;66.60
17296;DHT22;8766;51.480;6.872;2022-10-14T07:11:09;15.20;66.60
17296;DHT22;8766;51.480;6.872;2022-10-14T07:13:36;15.20;66.50
17296;DHT22;8766;51.480;6.872;2022-10-14T07:16:05;15.20;66.40
17296;DHT22;8766;51.480;6.872;2022-10-14T07:18:31;15.30;66.40
17296;DHT22;8766;51.480;6.872;2022-10-14T07:21:02;15.30;66.40
17296;DHT22;8766;51.480;6.872;2022-10-14T07:23:29;15.30;66.30
17296;DHT22;8766;51.480;6.872;2022-10-14T07:25:56;15.40;66.20
17296;DHT22;8766;51.480;6.872;2022-10-14T07:28:23;15.40;66.10
17296;DHT22;8766;51.480;6.872;2022-10-14T07:30:56;15.40;66.10
17296;DHT22;8766;51.480;6.872;2022-10-14T07:33:23;15.50;66.10
17296;DHT22;8766;51.480;6.872;2022-10-14T07:35:50;15.50;66.10
17296;DHT22;8766;51.480;6.872;2022-10-14T07:38:18;15.50;66.10
17296;DHT22;8766;51.480;6.872;2022-10-14T07:40:58;15.50;66.20
17296;DHT22;8766;51.480;6.872;2022-10-14T07:43:25;15.50;66.20
17296;DHT22;8766;51.480;6.872;2022-10-14T07:45:52;15.50;66.10
17296;DHT22;8766;51.480;6.872;2022-10-14T07:48:25;15.50;66.10
17296;DHT22;8766;51.480;6.872;2022-10-14T07:50:52;15.60;66.00
17296;DHT22;8766;51.480;6.872;2022-10-14T07:53:20;15.60;65.90
17296;DHT22;8766;51.480;6.872;2022-10-14T07:55:47;15.70;65.80
17296;DHT22;8766;51.480;6.872;2022-10-14T07:58:18;15.70;65.80
17296;DHT22;8766;51.480;6.872;2022-10-14T08:00:46;15.70;65.70
17296;DHT22;8766;51.480;6.872;2022-10-14T08:03:13;15.80;65.70
17296;DHT22;8766;51.480;6.872;2022-10-14T08:05:40;15.80;65.60
17296;DHT22;8766;51.480;6.872;2022-10-14T08:08:07;15.80;65.60
17296;DHT22;8766;51.480;6.872;2022-10-14T08:10:36;15.80;65.60
17296;DHT22;8766;51.480;6.872;2022-10-14T08:13:03;15.80;65.70
17296;DHT22;8766;51.480;6.872;2022-10-14T08:15:33;15.80;65.70
17296;DHT22;8766;51.480;6.872;2022-10-14T08:18:03;15.80;65.70
17296;DHT22;8766;51.480;6.872;2022-10-14T08:20:30;15.80;65.70
17296;DHT22;8766;51.480;6.872;2022-10-14T08:22:58;15.80;65.70
17296;DHT22;8766;51.480;6.872;2022-10-14T08:25:25;15.80;65.70
17296;DHT22;8766;51.480;6.872;2022-10-14T08:27:54;15.90;65.70
17296;DHT22;8766;51.480;6.872;2022-10-14T08:30:22;15.90;65.60
17296;DHT22;8766;51.480;6.872;2022-10-14T08:32:49;15.90;65.50
17296;DHT22;8766;51.480;6.872;2022-10-14T08:35:16;16.00;65.50
17296;DHT22;8766;51.480;6.872;2022-10-14T08:37:43;16.00;65.50
17296;DHT22;8766;51.480;6.872;2022-10-14T08:40:14;16.00;65.40
17296;DHT22;8766;51.480;6.872;2022-10-14T08:42:50;16.10;65.40
17296;DHT22;8766;51.480;6.872;2022-10-14T08:45:26;16.10;65.40
17296;DHT22;8766;51.480;6.872;2022-10-14T08:47:56;16.10;65.30
17296;DHT22;8766;51.480;6.872;2022-10-14T08:50:26;16.20;65.20
17296;DHT22;8766;51.480;6.872;2022-10-14T08:53:00;16.30;65.10
17296;DHT22;8766;51.480;6.872;2022-10-14T08:55:32;16.40;65.00
17296;DHT22;8766;51.480;6.872;2022-10-14T08:58:06;16.40;64.80
17296;DHT22;8766;51.480;6.872;2022-10-14T09:00:39;16.50;64.60
17296;DHT22;8766;51.480;6.872;2022-10-14T09:03:14;16.60;64.50
17296;DHT22;8766;51.480;6.872;2022-10-14T09:05:41;16.60;64.40
17296;DHT22;8766;51.480;6.872;2022-10-14T09:08:12;16.60;64.30
17296;DHT22;8766;51.480;6.872;2022-10-14T09:10:41;16.60;64.40
17296;DHT22;8766;51.480;6.872;2022-10-14T09:13:13;16.60;64.50
17296;DHT22;8766;51.480;6.872;2022-10-14T09:15:45;16.60;64.70
17296;DHT22;8766;51.480;6.872;2022-10-14T09:18:23;16.60;64.80
17296;DHT22;8766;51.480;6.872;2022-10-14T09:20:54;16.60;64.70
17296;DHT22;8766;51.480;6.872;2022-10-14T09:23:24;16.60;64.70
17296;DHT22;8766;51.480;6.872;2022-10-14T09:25:57;16.60;64.70
17296;DHT22;8766;51.480;6.872;2022-10-14T09:28:31;16.60;64.70
17296;DHT22;8766;51.480;6.872;2022-10-14T09:31:03;16.60;64.70
17296;DHT22;8766;51.480;6.872;2022-10-14T09:33:30;16.60;64.60
17296;DHT22;8766;51.480;6.872;2022-10-14T09:35:58;16.70;64.50
17296;DHT22;8766;51.480;6.872;2022-10-14T09:38:25;16.70;64.50
17296;DHT22;8766;51.480;6.872;2022-10-14T09:40:55;16.80;64.60
17296;DHT22;8766;51.480;6.872;2022-10-14T09:43:23;16.70;64.40
17296;DHT22;8766;51.480;6.872;2022-10-14T09:45:54;16.80;64.50
17296;DHT22;8766;51.480;6.872;2022-10-14T09:48:32;16.80;64.40
17296;DHT22;8766;51.480;6.872;2022-10-14T09:51:05;16.80;64.30
17296;DHT22;8766;51.480;6.872;2022-10-14T09:53:36;16.90;64.30
17296;DHT22;8766;51.480;6.872;2022-10-14T09:56:07;17.00;64.20
17296;DHT22;8766;51.480;6.872;2022-10-14T09:58:38;17.00;64.10
17296;DHT22;8766;51.480;6.872;2022-10-14T10:01:14;17.00;64.20
17296;DHT22;8766;51.480;6.872;2022-10-14T10:03:43;17.00;64.20
17296;DHT22;8766;51.480;6.872;2022-10-14T10:06:12;17.00;64.20
17296;DHT22;8766;51.480;6.872;2022-10-14T10:08:52;17.00;64.20
17296;DHT22;8766;51.480;6.872;2022-10-14T10:11:26;17.00;64.30
17296;DHT22;8766;51.480;6.872;2022-10-14T10:13:54;17.00;64.50
17296;DHT22;8766;51.480;6.872;2022-10-14T10:16:23;16.90;64.40
17296;DHT22;8766;51.480;6.872;2022-10-14T10:18:53;16.90;64.50
17296;DHT22;8766;51.480;6.872;2022-10-14T10:21:23;16.90;64.60
17296;DHT22;8766;51.480;6.872;2022-10-14T10:23:53;16.90;64.60
17296;DHT22;8766;51.480;6.872;2022-10-14T10:26:22;16.90;64.70
17296;DHT22;8766;51.480;6.872;2022-10-14T10:28:52;16.90;64.70
17296;DHT22;8766;51.480;6.872;2022-10-14T10:31:46;16.90;64.70
17296;DHT22;8766;51.480;6.872;2022-10-14T10:34:55;16.90;64.80
17296;DHT22;8766;51.480;6.872;2022-10-14T10:37:27;16.80;64.80
17296;DHT22;8766;51.480;6.872;2022-10-14T10:43:17;16.80;64.90
17296;DHT22;8766;51.480;6.872;2022-10-14T10:45:57;16.90;64.90
17296;DHT22;8766;51.480;6.872;2022-10-14T10:48:31;16.80;64.90
17296;DHT22;8766;51.480;6.872;2022-10-14T10:51:08;16.80;64.90
17296;DHT22;8766;51.480;6.872;2022-10-14T10:54:00;16.80;64.90
17296;DHT22;8766;51.480;6.872;2022-10-14T10:56:37;16.90;65.00
17296;DHT22;8766;51.480;6.872;2022-10-14T10:59:41;16.90;64.90
17296;DHT22;8766;51.480;6.872;2022-10-14T11:05:17;16.90;65.00
17296;DHT22;8766;51.480;6.872;2022-10-14T11:07:53;16.90;64.90
17296;DHT22;8766;51.480;6.872;2022-10-14T11:10:46;16.90;64.90
17296;DHT22;8766;51.480;6.872;2022-10-14T11:13:39;16.90;64.90
17296;DHT22;8766;51.480;6.872;2022-10-14T11:16:14;17.00;64.80
17296;DHT22;8766;51.480;6.872;2022-10-14T11:18:47;17.00;64.80
17296;DHT22;8766;51.480;6.872;2022-10-14T11:21:20;17.00;64.80
17296;DHT22;8766;51.480;6.872;2022-10-14T11:23:59;17.00;64.80
17296;DHT22;8766;51.480;6.872;2022-10-14T11:26:51;17.00;64.90
17296;DHT22;8766;51.480;6.872;2022-10-14T11:29:34;17.00;65.00
17296;DHT22;8766;51.480;6.872;2022-10-14T11:32:13;17.00;65.00
17296;DHT22;8766;51.480;6.872;2022-10-14T11:34:51;16.90;64.90
17296;DHT22;8766;51.480;6.872;2022-10-14T11:37:28;16.90;65.10
17296;DHT22;8766;51.480;6.872;2022-10-14T11:40:02;16.80;65.10
17296;DHT22;8766;51.480;6.872;2022-10-14T11:42:41;16.80;65.20
17296;DHT22;8766;51.480;6.872;2022-10-14T11:45:30;16.90;65.30
17296;DHT22;8766;51.480;6.872;2022-10-14T11:48:04;16.80;65.30
17296;DHT22;8766;51.480;6.872;2022-10-14T11:50:38;16.80;65.40
17296;DHT22;8766;51.480;6.872;2022-10-14T11:53:11;16.80;65.50
17296;DHT22;8766;51.480;6.872;2022-10-14T11:55:45;16.80;65.60
17296;DHT22;8766;51.480;6.872;2022-10-14T11:58:15;16.70;65.60
17296;DHT22;8766;51.480;6.872;2022-10-14T12:00:46;16.70;65.70
17296;DHT22;8766;51.480;6.872;2022-10-14T12:03:20;16.70;65.70
17296;DHT22;8766;51.480;6.872;2022-10-14T12:05:55;16.70;65.80
17296;DHT22;8766;51.480;6.872;2022-10-14T12:08:26;16.70;65.70
17296;DHT22;8766;51.480;6.872;2022-10-14T12:11:02;16.80;65.70
17296;DHT22;8766;51.480;6.872;2022-10-14T12:13:33;16.80;65.60
17296;DHT22;8766;51.480;6.872;2022-10-14T12:16:02;16.80;65.50
17296;DHT22;8766;51.480;6.872;2022-10-14T12:18:30;16.90;65.50
17296;DHT22;8766;51.480;6.872;2022-10-14T12:21:07;16.90;65.30
17296;DHT22;8766;51.480;6.872;2022-10-14T12:23:44;17.00;65.30
17296;DHT22;8766;51.480;6.872;2022-10-14T12:26:15;17.00;65.20
17296;DHT22;8766;51.480;6.872;2022-10-14T12:28:53;17.00;65.20
17296;DHT22;8766;51.480;6.872;2022-10-14T12:31:21;17.00;65.20
17296;DHT22;8766;51.480;6.872;2022-10-14T12:36:55;17.00;65.40
17296;DHT22;8766;51.480;6.872;2022-10-14T12:39:30;17.00;65.30
17296;DHT22;8766;51.480;6.872;2022-10-14T12:42:03;17.00;65.30
17296;DHT22;8766;51.480;6.872;2022-10-14T12:44:42;17.00;65.30
17296;DHT22;8766;51.480;6.872;2022-10-14T12:47:17;17.00;65.40
17296;DHT22;8766;51.480;6.872;2022-10-14T12:49:46;17.00;65.40
17296;DHT22;8766;51.480;6.872;2022-10-14T12:52:20;17.00;65.40
17296;DHT22;8766;51.480;6.872;2022-10-14T12:54:50;17.00;65.60
17296;DHT22;8766;51.480;6.872;2022-10-14T12:57:26;17.00;65.50
17296;DHT22;8766;51.480;6.872;2022-10-14T12:59:55;17.00;65.40
17296;DHT22;8766;51.480;6.872;2022-10-14T13:02:29;17.10;65.40
17296;DHT22;8766;51.480;6.872;2022-10-14T13:05:00;17.10;65.40
17296;DHT22;8766;51.480;6.872;2022-10-14T13:07:38;17.10;65.40
17296;DHT22;8766;51.480;6.872;2022-10-14T13:10:39;17.10;65.40
17296;DHT22;8766;51.480;6.872;2022-10-14T13:19:38;17.10;65.30
17296;DHT22;8766;51.480;6.872;2022-10-14T13:22:33;17.20;65.20
17296;DHT22;8766;51.480;6.872;2022-10-14T13:25:14;17.30;65.10
17296;DHT22;8766;51.480;6.872;2022-10-14T13:28:09;17.30;65.00
17296;DHT22;8766;51.480;6.872;2022-10-14T13:30:50;17.30;65.00
17296;DHT22;8766;51.480;6.872;2022-10-14T13:33:23;17.20;65.00
17296;DHT22;8766;51.480;6.872;2022-10-14T13:36:00;17.20;65.20
17296;DHT22;8766;51.480;6.872;2022-10-14T13:38:31;17.20;65.40
17296;DHT22;8766;51.480;6.872;2022-10-14T13:40:59;17.10;65.50
17296;DHT22;8766;51.480;6.872;2022-10-14T13:43:27;17.10;65.70
17296;DHT22;8766;51.480;6.872;2022-10-14T13:45:57;17.10;65.80
17296;DHT22;8766;51.480;6.872;2022-10-14T13:48:29;17.00;65.80
17296;DHT22;8766;51.480;6.872;2022-10-14T13:51:08;17.00;65.90
17296;DHT22;8766;51.480;6.872;2022-10-14T13:53:48;17.00;66.00
17296;DHT22;8766;51.480;6.872;2022-10-14T13:56:20;17.00;66.00
17296;DHT22;8766;51.480;6.872;2022-10-14T13:58:47;17.00;66.00
17296;DHT22;8766;51.480;6.872;2022-10-14T14:01:16;17.00;66.00
17296;DHT22;8766;51.480;6.872;2022-10-14T14:03:44;17.00;66.00
17296;DHT22;8766;51.480;6.872;2022-10-14T14:06:16;17.00;66.10
17296;DHT22;8766;51.480;6.872;2022-10-14T14:08:46;17.00;66.10
17296;DHT22;8766;51.480;6.872;2022-10-14T14:11:19;16.90;66.20
17296;DHT22;8766;51.480;6.872;2022-10-14T14:13:51;16.80;66.30
17296;DHT22;8766;51.480;6.872;2022-10-14T14:16:20;16.90;66.50
17296;DHT22;8766;51.480;6.872;2022-10-14T14:18:49;16.90;66.50
17296;DHT22;8766;51.480;6.872;2022-10-14T14:21:21;16.80;66.50
17296;DHT22;8766;51.480;6.872;2022-10-14T14:23:50;16.80;66.50
17296;DHT22;8766;51.480;6.872;2022-10-14T14:26:18;16.80;66.60
17296;DHT22;8766;51.480;6.872;2022-10-14T14:28:46;16.80;66.60
17296;DHT22;8766;51.480;6.872;2022-10-14T14:31:15;16.80;66.60
17296;DHT22;8766;51.480;6.872;2022-10-14T14:33:44;16.80;66.70
17296;DHT22;8766;51.480;6.872;2022-10-14T14:36:13;16.70;66.60
17296;DHT22;8766;51.480;6.872;2022-10-14T14:38:52;16.70;66.70
17296;DHT22;8766;51.480;6.872;2022-10-14T14:41:21;16.80;66.80
17296;DHT22;8766;51.480;6.872;2022-10-14T14:43:50;16.80;66.90
17296;DHT22;8766;51.480;6.872;2022-10-14T14:46:19;16.80;66.80
17296;DHT22;8766;51.480;6.872;2022-10-14T14:48:51;16.70;66.80
17296;DHT22;8766;51.480;6.872;2022-10-14T14:51:19;16.80;66.90
17296;DHT22;8766;51.480;6.872;2022-10-14T14:53:50;16.70;66.80
17296;DHT22;8766;51.480;6.872;2022-10-14T14:56:23;16.70;66.90
17296;DHT22;8766;51.480;6.872;2022-10-14T14:58:52;16.70;67.00
17296;DHT22;8766;51.480;6.872;2022-10-14T15:01:21;16.70;67.10
17296;DHT22;8766;51.480;6.872;2022-10-14T15:03:52;16.70;67.10
17296;DHT22;8766;51.480;6.872;2022-10-14T15:06:21;16.70;67.20
17296;DHT22;8766;51.480;6.872;2022-10-14T15:08:51;16.70;67.20
17296;DHT22;8766;51.480;6.872;2022-10-14T15:11:19;16.60;67.20
17296;DHT22;8766;51.480;6.872;2022-10-14T15:13:49;16.70;67.20
17296;DHT22;8766;51.480;6.872;2022-10-14T15:16:34;16.70;67.20
17296;DHT22;8766;51.480;6.872;2022-10-14T15:19:24;16.70;67.30
17296;DHT22;8766;51.480;6.872;2022-10-14T15:22:07;16.60;67.20
17296;DHT22;8766;51.480;6.872;2022-10-14T15:24:55;16.70;67.30
17296;DHT22;8766;51.480;6.872;2022-10-14T15:27:49;16.70;67.20
17296;DHT22;8766;51.480;6.872;2022-10-14T15:30:24;16.70;67.30
17296;DHT22;8766;51.480;6.872;2022-10-14T15:32:55;16.70;67.30
17296;DHT22;8766;51.480;6.872;2022-10-14T15:35:23;16.60;67.20
17296;DHT22;8766;51.480;6.872;2022-10-14T15:37:51;16.70;67.20
17296;DHT22;8766;51.480;6.872;2022-10-14T15:40:22;16.70;67.20
17296;DHT22;8766;51.480;6.872;2022-10-14T15:42:49;16.70;67.10
17296;DHT22;8766;51.480;6.872;2022-10-14T15:45:17;16.70;67.10
17296;DHT22;8766;51.480;6.872;2022-10-14T15:47:45;16.70;67.10
17296;DHT22;8766;51.480;6.872;2022-10-14T15:50:15;16.70;67.10
17296;DHT22;8766;51.480;6.872;2022-10-14T15:52:42;16.70;67.10
17296;DHT22;8766;51.480;6.872;2022-10-14T15:55:15;16.70;67.20
17296;DHT22;8766;51.480;6.872;2022-10-14T15:57:45;16.70;67.20
17296;DHT22;8766;51.480;6.872;2022-10-14T16:00:15;16.70;67.20
17296;DHT22;8766;51.480;6.872;2022-10-14T16:02:44;16.70;67.30
17296;DHT22;8766;51.480;6.872;2022-10-14T16:05:12;16.70;67.40
17296;DHT22;8766;51.480;6.872;2022-10-14T16:07:39;16.60;67.40
17296;DHT22;8766;51.480;6.872;2022-10-14T16:10:09;16.50;67.50
17296;DHT22;8766;51.480;6.872;2022-10-14T16:12:37;16.60;67.70
17296;DHT22;8766;51.480;6.872;2022-10-14T16:15:27;16.50;67.70
17296;DHT22;8766;51.480;6.872;2022-10-14T16:17:56;16.50;67.80
17296;DHT22;8766;51.480;6.872;2022-10-14T16:20:24;16.50;67.70
17296;DHT22;8766;51.480;6.872;2022-10-14T16:22:51;16.50;67.70
17296;DHT22;8766;51.480;6.872;2022-10-14T16:25:22;16.50;67.80